createdAt,value
2022-08-23T00:02:25.572Z,52.36
2022-08-23T00:05:07.846Z,53.03
2022-08-23T00:07:39.203Z,53.48
2022-08-23T00:10:08.552Z,53.97
2022-08-23T00:12:35.202Z,53.87
2022-08-23T00:15:01.738Z,54.14
2022-08-23T00:17:33.785Z,54.39
2022-08-23T00:20:13.017Z,54.43
2022-08-23T00:22:40.217Z,54.18
2022-08-23T00:25:09.263Z,54.28
2022-08-23T00:27:35.895Z,54.56
2022-08-23T00:30:03.924Z,54.77
2022-08-23T00:32:33.257Z,54.54
2022-08-23T00:35:00.861Z,54.37
2022-08-23T00:37:29.560Z,54.86
2022-08-23T00:39:56.070Z,54.94
2022-08-23T00:43:03.166Z,55.76
2022-08-23T00:46:06.315Z,55.92
2022-08-23T00:48:34.326Z,56.33
2022-08-23T00:51:11.339Z,55.98
2022-08-23T00:53:49.621Z,56.52
2022-08-23T00:56:19.318Z,56.62
2022-08-23T00:58:46.666Z,56.72
2022-08-23T01:01:14.569Z,56.23
2022-08-23T01:03:49.800Z,56.29
2022-08-23T01:06:32.539Z,56.32
2022-08-23T01:09:05.919Z,57.27
2022-08-23T01:11:39.278Z,57.50
2022-08-23T01:14:16.153Z,58.20
2022-08-23T01:17:05.638Z,58.79
2022-08-23T01:19:47.303Z,58.91
2022-08-23T01:22:36.192Z,58.85
2022-08-23T01:25:08.979Z,58.46
2022-08-23T01:27:37.119Z,58.05
2022-08-23T01:30:09.049Z,58.27
2022-08-23T01:32:46.389Z,58.06
2022-08-23T01:35:13.522Z,58.07
2022-08-23T01:37:40.636Z,58.49
2022-08-23T01:40:07.688Z,58.88
2022-08-23T01:42:34.205Z,58.99
2022-08-23T01:45:01.311Z,58.72
2022-08-23T01:47:28.121Z,58.71
2022-08-23T01:49:54.578Z,59.34
2022-08-23T01:52:21.293Z,59.30
2022-08-23T01:54:47.753Z,59.52
2022-08-23T01:57:14.411Z,59.79
2022-08-23T01:59:42.888Z,60.04
2022-08-23T02:02:09.441Z,60.38
2022-08-23T02:04:35.876Z,59.99
2022-08-23T02:07:02.410Z,60.71
2022-08-23T02:09:28.906Z,61.26
2022-08-23T02:11:55.329Z,61.27
2022-08-23T02:14:21.759Z,61.82
2022-08-23T02:16:58.128Z,61.70
2022-08-23T02:19:33.084Z,62.22
2022-08-23T02:21:59.579Z,62.46
2022-08-23T02:24:26.432Z,62.84
2022-08-23T02:26:57.547Z,63.04
2022-08-23T02:29:25.364Z,63.53
2022-08-23T02:31:52.736Z,63.28
2022-08-23T02:34:38.159Z,63.51
2022-08-23T02:37:05.507Z,63.75
2022-08-23T02:39:32.067Z,64.63
2022-08-23T02:41:58.674Z,64.97
2022-08-23T02:44:25.177Z,65.58
2022-08-23T02:46:51.691Z,65.70
2022-08-23T02:49:18.746Z,65.60
2022-08-23T02:51:45.976Z,65.28
2022-08-23T02:54:12.511Z,65.47
2022-08-23T02:56:39.491Z,65.66
2022-08-23T02:59:06.711Z,65.87
2022-08-23T03:01:36.074Z,66.12
2022-08-23T03:04:03.871Z,66.45
2022-08-23T03:06:30.499Z,66.64
2022-08-23T03:08:57.086Z,66.68
2022-08-23T03:11:25.109Z,66.96
2022-08-23T03:13:52.954Z,66.84
2022-08-23T03:16:20.633Z,66.75
2022-08-23T03:18:47.725Z,67.02
2022-08-23T03:21:17.005Z,67.24
2022-08-23T03:23:43.979Z,66.72
2022-08-23T03:26:12.102Z,66.75
2022-08-23T03:28:40.864Z,66.85
2022-08-23T03:31:09.139Z,66.92
2022-08-23T03:33:35.913Z,66.69
2022-08-23T03:36:04.873Z,66.65
2022-08-23T03:38:31.285Z,67.31
2022-08-23T03:40:58.345Z,67.57
2022-08-23T03:43:24.889Z,67.91
2022-08-23T03:45:51.575Z,67.80
2022-08-23T03:48:18.259Z,69.02
2022-08-23T03:50:44.859Z,69.62
2022-08-23T03:53:12.062Z,69.71
2022-08-23T03:55:42.562Z,70.25
2022-08-23T03:58:11.001Z,70.25
2022-08-23T04:00:38.567Z,70.60
2022-08-23T04:03:05.124Z,70.50
2022-08-23T04:05:31.556Z,70.63
2022-08-23T04:07:58.589Z,70.73
2022-08-23T04:10:25.471Z,70.54
2022-08-23T04:12:54.828Z,70.67
2022-08-23T04:15:22.302Z,70.38
2022-08-23T04:17:49.055Z,70.69
2022-08-23T04:20:15.555Z,71.10
2022-08-23T04:22:42.124Z,71.31
2022-08-23T04:25:33.494Z,70.55
2022-08-23T04:27:55.449Z,70.07
2022-08-23T04:30:21.989Z,70.24
2022-08-23T04:32:50.302Z,70.49
2022-08-23T04:35:16.998Z,70.13
2022-08-23T04:37:43.459Z,70.28
2022-08-23T04:40:29.599Z,70.11
2022-08-23T04:42:56.293Z,70.14
2022-08-23T04:45:22.793Z,69.72
2022-08-23T04:47:49.300Z,69.11
2022-08-23T04:50:15.713Z,69.62
2022-08-23T04:52:42.134Z,69.81
2022-08-23T04:55:08.714Z,70.72
2022-08-23T04:57:35.283Z,71.23
2022-08-23T05:00:02.296Z,71.96
2022-08-23T05:02:28.707Z,72.16
2022-08-23T05:04:55.136Z,71.79
2022-08-23T05:07:21.690Z,71.91
2022-08-23T05:10:10.150Z,72.00
2022-08-23T05:12:36.905Z,72.31
2022-08-23T05:15:04.237Z,73.24
2022-08-23T05:17:30.663Z,73.84
2022-08-23T05:19:57.103Z,73.27
2022-08-23T05:22:23.538Z,72.76
2022-08-23T05:24:49.995Z,72.58
2022-08-23T05:27:16.443Z,72.35
2022-08-23T05:29:42.917Z,72.45
2022-08-23T05:32:09.651Z,71.95
2022-08-23T05:34:36.164Z,71.06
2022-08-23T05:37:02.604Z,71.27
2022-08-23T05:39:36.267Z,71.83
2022-08-23T05:42:05.621Z,72.79
2022-08-23T05:44:36.729Z,73.59
2022-08-23T05:47:08.505Z,73.80
2022-08-23T05:49:37.209Z,72.99
2022-08-23T05:52:05.755Z,72.17
2022-08-23T05:54:32.787Z,72.00
2022-08-23T05:56:59.357Z,71.53
2022-08-23T05:59:25.838Z,71.41
2022-08-23T06:01:52.274Z,71.30
2022-08-23T06:04:19.590Z,70.76
2022-08-23T06:06:46.177Z,70.38
2022-08-23T06:09:16.389Z,70.32
2022-08-23T06:11:45.530Z,69.34
2022-08-23T06:14:12.461Z,68.69
2022-08-23T06:16:42.818Z,68.03
2022-08-23T06:19:10.142Z,68.89
2022-08-23T06:21:39.097Z,68.35
2022-08-23T06:24:07.121Z,67.70
2022-08-23T06:26:38.274Z,68.18
2022-08-23T06:29:10.931Z,68.52
2022-08-23T06:31:45.336Z,69.37
2022-08-23T06:34:13.679Z,66.72
2022-08-23T06:36:40.813Z,67.40
2022-08-23T06:39:10.379Z,67.07
2022-08-23T06:41:38.051Z,67.08
2022-08-23T06:44:04.580Z,66.28
2022-08-23T06:46:33.023Z,65.58
2022-08-23T06:49:00.820Z,65.08
2022-08-23T06:51:31.252Z,64.12
2022-08-23T06:54:03.038Z,63.69
2022-08-23T06:56:30.198Z,63.40
2022-08-23T06:58:56.934Z,62.75
2022-08-23T07:01:46.380Z,62.80
2022-08-23T07:04:16.249Z,63.45
2022-08-23T07:06:43.321Z,63.29
2022-08-23T07:09:09.883Z,63.77
2022-08-23T07:11:36.723Z,63.84
2022-08-23T07:14:06.891Z,63.73
2022-08-23T07:16:35.818Z,64.12
2022-08-23T07:19:03.016Z,64.69
2022-08-23T07:21:29.681Z,65.06
2022-08-23T07:23:56.173Z,65.53
2022-08-23T07:26:23.800Z,66.18
2022-08-23T07:28:50.733Z,67.62
2022-08-23T07:31:19.417Z,66.95
2022-08-23T07:33:46.356Z,65.57
2022-08-23T07:36:16.471Z,64.63
2022-08-23T07:38:45.445Z,64.42
2022-08-23T07:41:13.176Z,63.02
2022-08-23T07:43:39.987Z,62.33
2022-08-23T07:46:07.693Z,61.57
2022-08-23T07:48:52.818Z,59.56
2022-08-23T07:51:20.342Z,55.85
2022-08-23T07:53:47.959Z,54.53
2022-08-23T07:56:16.897Z,55.74
2022-08-23T07:58:43.432Z,56.53
2022-08-23T08:01:19.046Z,55.12
2022-08-23T08:03:48.527Z,54.73
2022-08-23T08:06:21.604Z,53.97
2022-08-23T08:08:48.733Z,55.46
2022-08-23T08:11:17.688Z,55.76
2022-08-23T08:13:45.816Z,56.36
2022-08-23T08:16:20.853Z,55.43
2022-08-23T08:18:47.297Z,56.57
2022-08-23T08:21:15.543Z,56.87
2022-08-23T08:23:42.401Z,56.55
2022-08-23T08:26:10.029Z,55.41
2022-08-23T08:28:37.050Z,54.25
2022-08-23T08:31:05.117Z,53.87
2022-08-23T08:33:34.273Z,53.43
2022-08-23T08:36:03.480Z,53.93
2022-08-23T08:38:31.022Z,54.15
2022-08-23T08:41:20.794Z,53.82
2022-08-23T08:44:03.473Z,53.30
2022-08-23T08:46:47.598Z,52.42
2022-08-23T08:49:21.354Z,52.52
2022-08-23T08:51:53.252Z,51.16
2022-08-23T08:54:24.733Z,51.03
2022-08-23T08:56:54.805Z,50.42
2022-08-23T08:59:26.006Z,49.35
2022-08-23T09:01:53.160Z,49.50
2022-08-23T09:04:21.037Z,49.55
2022-08-23T09:07:15.860Z,47.48
2022-08-23T09:09:45.333Z,46.58
2022-08-23T09:12:33.520Z,44.07
2022-08-23T09:15:15.789Z,42.65
2022-08-23T09:18:12.773Z,40.32
2022-08-23T09:20:41.614Z,39.46
2022-08-23T09:23:19.957Z,41.11
2022-08-23T09:25:56.363Z,41.35
2022-08-23T09:28:24.329Z,40.05
2022-08-23T09:30:55.128Z,39.05
2022-08-23T09:33:26.190Z,38.51
2022-08-23T09:36:06.396Z,37.39
2022-08-23T09:38:33.461Z,37.58
2022-08-23T09:41:00.386Z,39.04
2022-08-23T09:43:28.868Z,36.70
2022-08-23T09:46:02.061Z,36.62
2022-08-23T09:48:43.511Z,35.51
2022-08-23T09:51:32.484Z,35.50
2022-08-23T09:54:12.384Z,35.54
2022-08-23T09:56:42.150Z,36.21
2022-08-23T09:59:27.513Z,36.71
2022-08-23T10:01:56.917Z,37.33
2022-08-23T10:04:42.277Z,36.28
2022-08-23T10:07:26.075Z,36.78
2022-08-23T10:09:52.666Z,36.65
2022-08-23T10:12:19.060Z,37.24
2022-08-23T10:14:46.095Z,38.31
2022-08-23T10:17:38.821Z,38.43
2022-08-23T10:20:44.901Z,38.28
2022-08-23T10:23:33.450Z,37.06
2022-08-23T10:26:00.997Z,36.52
2022-08-23T10:29:09.531Z,36.76
2022-08-23T10:31:59.251Z,35.72
2022-08-23T10:34:54.984Z,34.88
2022-08-23T10:37:49.599Z,35.26
2022-08-23T10:40:26.177Z,35.12
2022-08-23T10:43:15.516Z,36.08
2022-08-23T10:45:46.451Z,36.49
2022-08-23T10:48:29.291Z,36.16
2022-08-23T10:51:03.707Z,36.71
2022-08-23T10:53:46.650Z,36.43
2022-08-23T10:56:20.717Z,35.62
2022-08-23T10:59:00.748Z,35.44
2022-08-23T11:01:53.416Z,34.70
2022-08-23T11:04:44.446Z,34.19
2022-08-23T11:07:34.156Z,33.85
2022-08-23T11:10:37.964Z,34.08
2022-08-23T11:13:20.746Z,32.94
2022-08-23T11:15:59.074Z,32.11
2022-08-23T11:18:34.384Z,31.79
2022-08-23T11:21:06.925Z,32.19
2022-08-23T11:23:59.846Z,31.36
2022-08-23T11:26:26.197Z,31.07
2022-08-23T11:28:54.795Z,30.32
2022-08-23T11:31:30.345Z,30.34
2022-08-23T11:34:29.745Z,30.98
2022-08-23T11:37:21.876Z,30.66
2022-08-23T11:40:05.203Z,30.08
2022-08-23T11:42:37.589Z,30.28
2022-08-23T11:45:28.329Z,29.13
2022-08-23T11:48:22.794Z,27.46
2022-08-23T11:50:59.469Z,27.73
2022-08-23T11:53:42.456Z,26.72
2022-08-23T11:56:11.811Z,26.65
2022-08-23T11:59:03.518Z,26.88
2022-08-23T12:01:38.879Z,26.71
2022-08-23T12:04:14.561Z,26.69
2022-08-23T12:06:55.960Z,24.30
2022-08-23T12:09:22.342Z,24.29
2022-08-23T12:11:54.800Z,26.46
2022-08-23T12:14:40.139Z,23.28
2022-08-23T12:17:12.510Z,24.03
2022-08-23T12:20:06.304Z,24.61
2022-08-23T12:23:14.056Z,23.47
2022-08-23T12:25:41.122Z,24.62
2022-08-23T12:28:31.458Z,24.21
2022-08-23T12:31:13.554Z,24.09
2022-08-23T12:34:02.332Z,24.41
2022-08-23T12:36:54.940Z,24.51
2022-08-23T12:39:26.816Z,24.54
2022-08-23T12:42:06.934Z,25.54
2022-08-23T12:44:33.949Z,25.62
2022-08-23T12:47:17.879Z,25.82
2022-08-23T12:50:00.291Z,26.53
2022-08-23T12:52:30.467Z,25.75
2022-08-23T12:54:58.114Z,25.72
2022-08-23T12:57:35.920Z,25.23
2022-08-23T13:00:20.402Z,25.00
2022-08-23T13:03:05.595Z,25.16
2022-08-23T13:05:52.166Z,25.52
2022-08-23T13:08:34.478Z,23.87
2022-08-23T13:11:07.377Z,24.37
2022-08-23T13:13:36.950Z,24.73
2022-08-23T13:16:27.127Z,24.52
2022-08-23T13:19:14.320Z,24.98
2022-08-23T13:21:40.769Z,24.55
2022-08-23T13:24:36.567Z,24.09
2022-08-23T13:27:28.828Z,24.40
2022-08-23T13:30:03.752Z,24.95
2022-08-23T13:33:13.151Z,24.72
2022-08-23T13:35:47.064Z,24.81
2022-08-23T13:38:20.619Z,25.29
2022-08-23T13:40:59.177Z,25.74
2022-08-23T13:43:33.813Z,25.29
2022-08-23T13:46:19.343Z,26.64
2022-08-23T13:49:05.935Z,26.96
2022-08-23T13:51:36.988Z,27.02
2022-08-23T13:54:13.630Z,26.81
2022-08-23T13:56:48.238Z,27.13
2022-08-23T13:59:31.386Z,27.07
2022-08-23T14:02:02.514Z,26.96
2022-08-23T14:04:29.365Z,26.99
2022-08-23T14:06:55.869Z,26.27
2022-08-23T14:09:22.343Z,26.59
2022-08-23T14:12:00.036Z,26.38
2022-08-23T14:14:31.340Z,26.36
2022-08-23T14:17:02.471Z,26.16
2022-08-23T14:22:18.451Z,26.00
2022-08-23T14:24:45.463Z,26.11
2022-08-23T14:27:12.697Z,25.97
2022-08-23T14:29:39.123Z,25.92
2022-08-23T14:32:05.791Z,25.70
2022-08-23T14:34:32.250Z,25.70
2022-08-23T14:39:45.420Z,26.10
2022-08-23T14:42:15.868Z,25.80
2022-08-23T14:44:42.302Z,25.96
2022-08-23T14:47:08.707Z,26.49
2022-08-23T14:49:36.029Z,26.70
2022-08-23T14:52:03.034Z,25.86
2022-08-23T14:54:29.814Z,25.83
2022-08-23T14:56:57.066Z,26.00
2022-08-23T14:59:23.540Z,25.26
2022-08-23T15:01:52.588Z,25.72
2022-08-23T15:04:22.824Z,25.84
2022-08-23T15:07:16.188Z,25.69
2022-08-23T15:09:38.340Z,25.75
2022-08-23T15:14:52.031Z,25.86
2022-08-23T15:17:18.660Z,25.30
2022-08-23T15:19:45.084Z,25.72
2022-08-23T15:22:18.848Z,25.30
2022-08-23T15:24:47.980Z,25.89
2022-08-23T15:27:14.433Z,25.58
2022-08-23T15:29:40.820Z,25.44
2022-08-23T15:32:08.718Z,25.37
2022-08-23T15:34:40.163Z,24.97
2022-08-23T15:37:13.637Z,25.60
2022-08-23T15:39:41.748Z,25.76
2022-08-23T15:42:08.389Z,25.78
2022-08-23T15:44:34.880Z,25.55
2022-08-23T15:47:04.691Z,25.21
2022-08-23T15:49:36.147Z,25.17
2022-08-23T15:52:04.011Z,25.07
2022-08-23T15:54:30.494Z,25.03
2022-08-23T15:56:56.946Z,25.47
2022-08-23T15:59:23.691Z,25.17
2022-08-23T16:01:50.265Z,25.21
2022-08-23T16:04:17.887Z,24.79
2022-08-23T16:06:45.199Z,24.75
2022-08-23T16:09:18.311Z,24.63
2022-08-23T16:11:45.232Z,24.79
2022-08-23T16:14:12.219Z,24.38
2022-08-23T16:16:40.981Z,24.52
2022-08-23T16:19:08.837Z,24.08
2022-08-23T16:21:36.047Z,24.17
2022-08-23T16:24:02.699Z,23.45
2022-08-23T16:26:35.112Z,24.13
2022-08-23T16:29:04.230Z,23.84
2022-08-23T16:31:38.638Z,23.93
2022-08-23T16:34:11.595Z,23.67
2022-08-23T16:36:40.654Z,23.48
2022-08-23T16:39:08.016Z,22.93
2022-08-23T16:41:34.529Z,22.88
2022-08-23T16:44:00.930Z,22.91
2022-08-23T16:46:28.862Z,22.27
2022-08-23T16:48:55.648Z,22.58
2022-08-23T16:51:23.130Z,22.73
2022-08-23T16:54:01.515Z,23.15
2022-08-23T16:56:30.447Z,23.44
2022-08-23T16:58:57.202Z,23.83
2022-08-23T17:01:24.107Z,23.75
2022-08-23T17:03:51.031Z,24.31
2022-08-23T17:06:18.149Z,24.69
2022-08-23T17:08:45.036Z,24.43
2022-08-23T17:11:15.705Z,25.05
2022-08-23T17:13:42.446Z,25.32
2022-08-23T17:16:10.675Z,25.42
2022-08-23T17:18:38.431Z,25.74
2022-08-23T17:21:05.157Z,25.51
2022-08-23T17:23:31.584Z,25.90
2022-08-23T17:25:58.967Z,26.35
2022-08-23T17:28:25.394Z,26.63
2022-08-23T17:30:52.158Z,27.31
2022-08-23T17:33:19.021Z,27.12
2022-08-23T17:35:46.374Z,27.38
2022-08-23T17:38:13.344Z,27.66
2022-08-23T17:40:41.132Z,27.15
2022-08-23T17:43:08.244Z,27.58
2022-08-23T17:46:01.953Z,27.62
2022-08-23T17:48:28.823Z,27.58
2022-08-23T17:50:55.587Z,27.92
2022-08-23T17:53:22.634Z,28.06
2022-08-23T17:55:49.109Z,28.02
2022-08-23T17:58:16.060Z,28.09
2022-08-23T18:00:43.148Z,28.29
2022-08-23T18:03:09.622Z,28.70
2022-08-23T18:05:40.831Z,28.76
2022-08-23T18:08:08.516Z,28.29
2022-08-23T18:10:35.945Z,28.81
2022-08-23T18:13:02.475Z,28.46
2022-08-23T18:15:30.079Z,28.86
2022-08-23T18:17:59.581Z,28.67
2022-08-23T18:20:27.292Z,28.78
2022-08-23T18:22:58.653Z,28.46
2022-08-23T18:25:26.795Z,28.42
2022-08-23T18:28:09.967Z,28.79
2022-08-23T18:30:38.467Z,28.81
2022-08-23T18:33:06.440Z,29.12
2022-08-23T18:35:34.505Z,29.00
2022-08-23T18:38:01.253Z,29.23
2022-08-23T18:40:29.336Z,29.42
2022-08-23T18:42:55.963Z,29.84
2022-08-23T18:45:22.832Z,29.54
2022-08-23T18:47:49.540Z,29.66
2022-08-23T18:50:17.011Z,29.70
2022-08-23T18:52:43.706Z,29.72
2022-08-23T18:55:10.232Z,30.09
2022-08-23T18:57:36.704Z,30.45
2022-08-23T19:00:05.211Z,30.35
2022-08-23T19:02:33.184Z,30.61
2022-08-23T19:04:59.718Z,30.92
2022-08-23T19:07:26.093Z,30.74
2022-08-23T19:09:52.513Z,30.87
2022-08-23T19:12:18.891Z,30.62
2022-08-23T19:14:45.919Z,30.95
2022-08-23T19:17:12.349Z,31.06
2022-08-23T19:19:38.751Z,30.93
2022-08-23T19:22:05.168Z,31.29
2022-08-23T19:24:31.752Z,31.19
2022-08-23T19:26:58.697Z,31.80
2022-08-23T19:29:25.651Z,31.53
2022-08-23T19:31:52.671Z,31.76
2022-08-23T19:34:20.718Z,32.10
2022-08-23T19:36:51.171Z,32.16
2022-08-23T19:39:25.999Z,32.27
2022-08-23T19:41:52.503Z,32.42
2022-08-23T19:44:19.352Z,32.05
2022-08-23T19:46:45.868Z,32.71
2022-08-23T19:49:13.331Z,32.52
2022-08-23T19:51:39.931Z,32.53
2022-08-23T19:54:11.417Z,32.87
2022-08-23T19:56:48.374Z,33.12
2022-08-23T19:59:19.514Z,33.08
2022-08-23T20:01:46.875Z,33.42
2022-08-23T20:04:13.343Z,33.51
2022-08-23T20:06:39.844Z,33.56
2022-08-23T20:09:07.414Z,33.86
2022-08-23T20:11:33.926Z,33.91
2022-08-23T20:14:01.258Z,34.03
2022-08-23T20:16:28.907Z,34.08
2022-08-23T20:18:55.600Z,34.51
2022-08-23T20:21:23.935Z,34.15
2022-08-23T20:24:01.037Z,34.56
2022-08-23T20:26:33.900Z,34.73
2022-08-23T20:29:04.934Z,35.06
2022-08-23T20:31:35.944Z,35.12
2022-08-23T20:34:06.576Z,35.63
2022-08-23T20:36:33.522Z,36.13
2022-08-23T20:39:01.445Z,36.15
2022-08-23T20:41:31.100Z,36.55
2022-08-23T20:43:58.405Z,37.56
2022-08-23T20:46:25.448Z,37.49
2022-08-23T20:48:52.587Z,37.88
2022-08-23T20:51:19.750Z,37.53
2022-08-23T20:53:47.187Z,37.80
2022-08-23T20:56:14.270Z,37.70
2022-08-23T20:58:40.652Z,38.30
2022-08-23T21:01:10.310Z,38.47
2022-08-23T21:03:38.332Z,37.99
2022-08-23T21:06:21.165Z,38.03
2022-08-23T21:08:50.103Z,38.48
2022-08-23T21:11:21.569Z,39.43
2022-08-23T21:13:48.481Z,39.00
2022-08-23T21:16:16.932Z,38.95
2022-08-23T21:18:44.089Z,39.43
2022-08-23T21:21:10.826Z,39.82
2022-08-23T21:23:38.274Z,39.57
2022-08-23T21:26:06.876Z,39.57
2022-08-23T21:28:33.661Z,39.89
2022-08-23T21:31:14.778Z,39.81
2022-08-23T21:33:42.330Z,39.82
2022-08-23T21:36:10.065Z,40.62
2022-08-23T21:38:37.061Z,41.01
2022-08-23T21:41:06.085Z,41.06
2022-08-23T21:43:33.742Z,41.77
2022-08-23T21:46:00.322Z,41.53
2022-08-23T21:48:26.908Z,41.51
2022-08-23T21:50:53.373Z,42.44
2022-08-23T21:53:19.991Z,42.82
2022-08-23T21:55:46.731Z,43.27
2022-08-23T21:58:13.488Z,43.37
2022-08-23T22:00:41.279Z,43.56
2022-08-23T22:03:08.993Z,43.46
2022-08-23T22:05:43.298Z,43.68
2022-08-23T22:08:14.117Z,43.88
2022-08-23T22:10:44.923Z,44.46
2022-08-23T22:13:23.862Z,44.68
2022-08-23T22:15:50.576Z,44.41
2022-08-23T22:18:24.849Z,44.24
2022-08-23T22:20:51.314Z,44.22
2022-08-23T22:23:17.779Z,44.39
2022-08-23T22:25:44.263Z,45.09
2022-08-23T22:28:10.727Z,45.08
2022-08-23T22:30:37.258Z,45.62
2022-08-23T22:33:03.990Z,45.59
2022-08-23T22:35:35.038Z,45.37
2022-08-23T22:38:13.708Z,46.10
2022-08-23T22:40:47.811Z,45.88
2022-08-23T22:43:14.333Z,45.52
2022-08-23T22:45:55.458Z,45.75
2022-08-23T22:48:22.186Z,46.07
2022-08-23T22:50:49.378Z,45.86
2022-08-23T22:53:17.049Z,46.06
2022-08-23T22:55:49.620Z,46.30
2022-08-23T22:58:16.038Z,46.30
2022-08-23T23:00:43.018Z,46.30
2022-08-23T23:03:10.602Z,46.27
2022-08-23T23:05:37.108Z,46.54
2022-08-23T23:08:22.220Z,46.59
2022-08-23T23:10:48.624Z,46.78
2022-08-23T23:13:15.089Z,46.67
2022-08-23T23:15:41.882Z,46.69
2022-08-23T23:18:08.304Z,46.71
2022-08-23T23:20:40.932Z,47.02
2022-08-23T23:23:17.691Z,47.32
2022-08-23T23:25:46.100Z,48.01
2022-08-23T23:28:14.109Z,47.83
2022-08-23T23:30:42.114Z,47.98
2022-08-23T23:33:08.862Z,48.30
2022-08-23T23:35:35.303Z,49.02
2022-08-23T23:38:01.959Z,49.83
2022-08-23T23:40:28.648Z,51.39
2022-08-23T23:42:55.976Z,49.39
2022-08-23T23:45:22.944Z,49.69
2022-08-23T23:47:49.867Z,49.45
2022-08-23T23:50:16.692Z,49.85
2022-08-23T23:52:43.211Z,49.62
2022-08-23T23:55:12.500Z,49.75
2022-08-23T23:57:39.094Z,50.35
